Chambersburg, Ohio
Current Conditions -  °F | °C
As of 4:51 AM on Thursday 23 Oct 2014 (Local Time) from KCAK Reporting Station
Few Clouds Few Clouds  
Wind Chill: 42°   Ceiling: Unl
Heat Index: 46°   Visibility: 9mi
Dew Point: 43°   Wind: 8mph
Humidity: 89%   Direction: 320°NW
Pressure: 30.17"   Gusts: NA
Location:  40.7427°N, 81.0929°W
Report Text: KCAK 230851Z 32007KT 9SM FEW012 08/06 A3017 RMK AO2 SLP222 T00780061 55003 $
Loading
Personal Weather Stations






























Interactive Weather Map
Tropical Storm Tracking
New forecast layout! Learn more

10-Day Weather Forecast

Advertisements
Track Severe Weather on mobile